sensor_id;sensor_type;location;lat;lon;timestamp;P1;durP1;ratioP1;P2;durP2;ratioP2
69854;SDS011;57146;48.140;16.304;2023-01-24T00:01:21;21.37;;;7.40;;
69854;SDS011;57146;48.140;16.304;2023-01-24T00:03:49;18.85;;;7.05;;
69854;SDS011;57146;48.140;16.304;2023-01-24T00:06:16;20.25;;;7.63;;
69854;SDS011;57146;48.140;16.304;2023-01-24T00:08:43;20.92;;;6.93;;
69854;SDS011;57146;48.140;16.304;2023-01-24T00:11:11;23.25;;;8.00;;
69854;SDS011;57146;48.140;16.304;2023-01-24T00:13:39;21.67;;;6.90;;
69854;SDS011;57146;48.140;16.304;2023-01-24T00:16:16;21.02;;;7.35;;
69854;SDS011;57146;48.140;16.304;2023-01-24T00:18:45;21.25;;;7.18;;
69854;SDS011;57146;48.140;16.304;2023-01-24T00:21:17;20.80;;;7.18;;
69854;SDS011;57146;48.140;16.304;2023-01-24T00:23:49;20.48;;;7.32;;
69854;SDS011;57146;48.140;16.304;2023-01-24T00:26:18;21.07;;;6.90;;
69854;SDS011;57146;48.140;16.304;2023-01-24T00:28:47;21.77;;;7.50;;
69854;SDS011;57146;48.140;16.304;2023-01-24T00:31:14;19.92;;;7.38;;
69854;SDS011;57146;48.140;16.304;2023-01-24T00:33:42;18.92;;;6.65;;
69854;SDS011;57146;48.140;16.304;2023-01-24T00:36:09;19.42;;;6.82;;
69854;SDS011;57146;48.140;16.304;2023-01-24T00:38:36;19.40;;;7.17;;
69854;SDS011;57146;48.140;16.304;2023-01-24T00:41:03;21.88;;;7.30;;
69854;SDS011;57146;48.140;16.304;2023-01-24T00:43:30;17.80;;;6.68;;
69854;SDS011;57146;48.140;16.304;2023-01-24T00:45:57;18.10;;;6.60;;
69854;SDS011;57146;48.140;16.304;2023-01-24T00:48:25;19.52;;;6.95;;
69854;SDS011;57146;48.140;16.304;2023-01-24T00:50:52;21.47;;;7.13;;
69854;SDS011;57146;48.140;16.304;2023-01-24T00:53:19;20.27;;;6.72;;
69854;SDS011;57146;48.140;16.304;2023-01-24T00:55:46;20.30;;;7.18;;
69854;SDS011;57146;48.140;16.304;2023-01-24T00:58:15;21.58;;;7.60;;
69854;SDS011;57146;48.140;16.304;2023-01-24T01:00:42;20.45;;;7.15;;
69854;SDS011;57146;48.140;16.304;2023-01-24T01:03:12;20.53;;;6.73;;
69854;SDS011;57146;48.140;16.304;2023-01-24T01:05:42;18.20;;;6.40;;
69854;SDS011;57146;48.140;16.304;2023-01-24T01:08:09;21.45;;;6.80;;
69854;SDS011;57146;48.140;16.304;2023-01-24T01:10:38;19.10;;;6.82;;
69854;SDS011;57146;48.140;16.304;2023-01-24T01:13:05;20.50;;;7.03;;
69854;SDS011;57146;48.140;16.304;2023-01-24T01:15:33;21.83;;;6.97;;
69854;SDS011;57146;48.140;16.304;2023-01-24T01:18:02;19.75;;;6.90;;
69854;SDS011;57146;48.140;16.304;2023-01-24T01:20:28;19.42;;;7.07;;
69854;SDS011;57146;48.140;16.304;2023-01-24T01:22:55;18.00;;;6.75;;
69854;SDS011;57146;48.140;16.304;2023-01-24T01:25:22;17.02;;;6.70;;
69854;SDS011;57146;48.140;16.304;2023-01-24T01:27:50;20.70;;;6.90;;
69854;SDS011;57146;48.140;16.304;2023-01-24T01:30:17;21.48;;;7.15;;
69854;SDS011;57146;48.140;16.304;2023-01-24T01:32:45;20.88;;;7.32;;
69854;SDS011;57146;48.140;16.304;2023-01-24T01:35:12;19.55;;;7.15;;
69854;SDS011;57146;48.140;16.304;2023-01-24T01:37:39;18.52;;;6.82;;
69854;SDS011;57146;48.140;16.304;2023-01-24T01:40:07;23.20;;;7.63;;
69854;SDS011;57146;48.140;16.304;2023-01-24T01:42:54;20.67;;;7.38;;
69854;SDS011;57146;48.140;16.304;2023-01-24T01:45:38;18.75;;;6.47;;
69854;SDS011;57146;48.140;16.304;2023-01-24T01:48:14;21.38;;;6.88;;
69854;SDS011;57146;48.140;16.304;2023-01-24T01:51:10;18.55;;;6.68;;
69854;SDS011;57146;48.140;16.304;2023-01-24T01:53:54;19.07;;;6.57;;
69854;SDS011;57146;48.140;16.304;2023-01-24T01:59:02;18.42;;;6.50;;
69854;SDS011;57146;48.140;16.304;2023-01-24T02:01:38;18.20;;;6.63;;
69854;SDS011;57146;48.140;16.304;2023-01-24T02:04:08;17.77;;;6.53;;
69854;SDS011;57146;48.140;16.304;2023-01-24T02:09:21;18.25;;;6.90;;
69854;SDS011;57146;48.140;16.304;2023-01-24T02:11:51;17.63;;;6.68;;
69854;SDS011;57146;48.140;16.304;2023-01-24T02:14:22;16.92;;;5.97;;
69854;SDS011;57146;48.140;16.304;2023-01-24T02:16:51;20.15;;;6.10;;
69854;SDS011;57146;48.140;16.304;2023-01-24T02:21:58;15.10;;;6.00;;
69854;SDS011;57146;48.140;16.304;2023-01-24T02:24:36;16.55;;;6.32;;
69854;SDS011;57146;48.140;16.304;2023-01-24T02:27:09;17.55;;;6.78;;
69854;SDS011;57146;48.140;16.304;2023-01-24T02:29:35;18.33;;;6.53;;
69854;SDS011;57146;48.140;16.304;2023-01-24T02:32:05;19.83;;;6.80;;
69854;SDS011;57146;48.140;16.304;2023-01-24T02:34:33;20.88;;;6.90;;
69854;SDS011;57146;48.140;16.304;2023-01-24T02:37:07;17.77;;;6.03;;
69854;SDS011;57146;48.140;16.304;2023-01-24T02:42:05;16.42;;;6.10;;
69854;SDS011;57146;48.140;16.304;2023-01-24T02:47:29;17.77;;;6.38;;
69854;SDS011;57146;48.140;16.304;2023-01-24T02:49:59;15.73;;;5.60;;
69854;SDS011;57146;48.140;16.304;2023-01-24T02:52:27;14.75;;;5.57;;
69854;SDS011;57146;48.140;16.304;2023-01-24T02:54:54;17.13;;;6.30;;
69854;SDS011;57146;48.140;16.304;2023-01-24T02:57:21;18.97;;;6.50;;
69854;SDS011;57146;48.140;16.304;2023-01-24T02:59:48;16.30;;;5.82;;
69854;SDS011;57146;48.140;16.304;2023-01-24T03:02:15;18.55;;;6.43;;
69854;SDS011;57146;48.140;16.304;2023-01-24T03:04:42;18.50;;;6.57;;
69854;SDS011;57146;48.140;16.304;2023-01-24T03:07:09;15.65;;;6.05;;
69854;SDS011;57146;48.140;16.304;2023-01-24T03:09:40;16.47;;;6.03;;
69854;SDS011;57146;48.140;16.304;2023-01-24T03:12:07;16.88;;;6.15;;
69854;SDS011;57146;48.140;16.304;2023-01-24T03:14:34;18.00;;;6.38;;
69854;SDS011;57146;48.140;16.304;2023-01-24T03:17:01;18.25;;;6.30;;
69854;SDS011;57146;48.140;16.304;2023-01-24T03:19:29;18.58;;;6.82;;
69854;SDS011;57146;48.140;16.304;2023-01-24T03:21:56;20.50;;;6.57;;
69854;SDS011;57146;48.140;16.304;2023-01-24T03:24:23;19.70;;;6.70;;
69854;SDS011;57146;48.140;16.304;2023-01-24T03:26:50;16.85;;;6.40;;
69854;SDS011;57146;48.140;16.304;2023-01-24T03:29:19;21.08;;;6.80;;
69854;SDS011;57146;48.140;16.304;2023-01-24T03:31:46;18.02;;;6.40;;
69854;SDS011;57146;48.140;16.304;2023-01-24T03:34:13;17.07;;;5.97;;
69854;SDS011;57146;48.140;16.304;2023-01-24T03:36:41;20.65;;;6.35;;
69854;SDS011;57146;48.140;16.304;2023-01-24T03:39:09;19.67;;;6.20;;
69854;SDS011;57146;48.140;16.304;2023-01-24T03:42:02;17.90;;;6.47;;
69854;SDS011;57146;48.140;16.304;2023-01-24T03:44:31;20.05;;;6.43;;
69854;SDS011;57146;48.140;16.304;2023-01-24T03:46:58;17.37;;;6.13;;
69854;SDS011;57146;48.140;16.304;2023-01-24T03:49:25;18.52;;;6.63;;
69854;SDS011;57146;48.140;16.304;2023-01-24T03:51:53;22.17;;;7.40;;
69854;SDS011;57146;48.140;16.304;2023-01-24T03:54:20;20.45;;;6.78;;
69854;SDS011;57146;48.140;16.304;2023-01-24T03:56:55;20.60;;;6.63;;
69854;SDS011;57146;48.140;16.304;2023-01-24T03:59:24;18.77;;;7.13;;
69854;SDS011;57146;48.140;16.304;2023-01-24T04:02:18;20.48;;;6.25;;
69854;SDS011;57146;48.140;16.304;2023-01-24T04:04:46;22.17;;;6.88;;
69854;SDS011;57146;48.140;16.304;2023-01-24T04:07:14;20.20;;;6.40;;
69854;SDS011;57146;48.140;16.304;2023-01-24T04:09:57;19.98;;;6.75;;
69854;SDS011;57146;48.140;16.304;2023-01-24T04:12:24;19.53;;;6.77;;
69854;SDS011;57146;48.140;16.304;2023-01-24T04:15:21;19.85;;;6.32;;
69854;SDS011;57146;48.140;16.304;2023-01-24T04:17:58;20.40;;;6.95;;
69854;SDS011;57146;48.140;16.304;2023-01-24T04:20:29;20.67;;;6.72;;
69854;SDS011;57146;48.140;16.304;2023-01-24T04:23:04;22.90;;;7.60;;
69854;SDS011;57146;48.140;16.304;2023-01-24T04:25:57;22.03;;;7.50;;
69854;SDS011;57146;48.140;16.304;2023-01-24T04:28:27;22.83;;;7.55;;
69854;SDS011;57146;48.140;16.304;2023-01-24T04:30:56;24.55;;;7.45;;
69854;SDS011;57146;48.140;16.304;2023-01-24T04:34:06;22.70;;;7.10;;
69854;SDS011;57146;48.140;16.304;2023-01-24T04:36:37;22.25;;;7.43;;
69854;SDS011;57146;48.140;16.304;2023-01-24T04:39:08;19.47;;;6.90;;
69854;SDS011;57146;48.140;16.304;2023-01-24T04:41:49;23.48;;;7.20;;
69854;SDS011;57146;48.140;16.304;2023-01-24T04:44:18;22.23;;;7.00;;
69854;SDS011;57146;48.140;16.304;2023-01-24T04:46:46;23.17;;;7.45;;
69854;SDS011;57146;48.140;16.304;2023-01-24T04:49:17;21.30;;;7.35;;
69854;SDS011;57146;48.140;16.304;2023-01-24T04:52:12;22.03;;;7.33;;
69854;SDS011;57146;48.140;16.304;2023-01-24T04:54:51;21.30;;;6.78;;
69854;SDS011;57146;48.140;16.304;2023-01-24T04:57:18;23.27;;;7.80;;
69854;SDS011;57146;48.140;16.304;2023-01-24T04:59:47;22.83;;;6.97;;
69854;SDS011;57146;48.140;16.304;2023-01-24T05:02:15;22.42;;;7.68;;
69854;SDS011;57146;48.140;16.304;2023-01-24T05:04:42;22.20;;;7.10;;
69854;SDS011;57146;48.140;16.304;2023-01-24T05:07:12;23.20;;;7.60;;
69854;SDS011;57146;48.140;16.304;2023-01-24T05:09:44;22.98;;;7.60;;
69854;SDS011;57146;48.140;16.304;2023-01-24T05:12:15;21.50;;;7.35;;
69854;SDS011;57146;48.140;16.304;2023-01-24T05:14:43;22.05;;;7.57;;
69854;SDS011;57146;48.140;16.304;2023-01-24T05:17:10;19.07;;;6.90;;
69854;SDS011;57146;48.140;16.304;2023-01-24T05:19:37;22.30;;;7.55;;
69854;SDS011;57146;48.140;16.304;2023-01-24T05:22:05;21.95;;;8.02;;
69854;SDS011;57146;48.140;16.304;2023-01-24T05:24:41;22.15;;;7.82;;
69854;SDS011;57146;48.140;16.304;2023-01-24T05:27:09;20.08;;;6.95;;
69854;SDS011;57146;48.140;16.304;2023-01-24T05:29:41;21.53;;;7.20;;
69854;SDS011;57146;48.140;16.304;2023-01-24T05:32:09;21.33;;;7.13;;
69854;SDS011;57146;48.140;16.304;2023-01-24T05:34:40;22.73;;;7.43;;
69854;SDS011;57146;48.140;16.304;2023-01-24T05:37:08;22.25;;;7.10;;
69854;SDS011;57146;48.140;16.304;2023-01-24T05:39:39;21.92;;;7.60;;
69854;SDS011;57146;48.140;16.304;2023-01-24T05:42:07;22.20;;;7.77;;
69854;SDS011;57146;48.140;16.304;2023-01-24T05:44:41;22.73;;;7.50;;
69854;SDS011;57146;48.140;16.304;2023-01-24T05:47:11;23.70;;;7.90;;
69854;SDS011;57146;48.140;16.304;2023-01-24T05:49:40;22.60;;;7.80;;
69854;SDS011;57146;48.140;16.304;2023-01-24T05:52:09;21.65;;;8.07;;
69854;SDS011;57146;48.140;16.304;2023-01-24T05:54:54;22.43;;;7.53;;
69854;SDS011;57146;48.140;16.304;2023-01-24T05:57:32;22.35;;;7.93;;
69854;SDS011;57146;48.140;16.304;2023-01-24T06:00:27;23.55;;;7.85;;
69854;SDS011;57146;48.140;16.304;2023-01-24T06:03:13;23.85;;;7.35;;
69854;SDS011;57146;48.140;16.304;2023-01-24T06:05:44;23.70;;;8.40;;
69854;SDS011;57146;48.140;16.304;2023-01-24T06:08:13;21.97;;;7.63;;
69854;SDS011;57146;48.140;16.304;2023-01-24T06:11:07;26.48;;;7.97;;
69854;SDS011;57146;48.140;16.304;2023-01-24T06:14:01;22.33;;;7.55;;
69854;SDS011;57146;48.140;16.304;2023-01-24T06:16:30;23.98;;;8.30;;
69854;SDS011;57146;48.140;16.304;2023-01-24T06:18:57;26.63;;;8.77;;
69854;SDS011;57146;48.140;16.304;2023-01-24T06:24:03;25.50;;;8.63;;
69854;SDS011;57146;48.140;16.304;2023-01-24T06:26:49;26.23;;;9.18;;
69854;SDS011;57146;48.140;16.304;2023-01-24T06:29:18;24.95;;;8.60;;
69854;SDS011;57146;48.140;16.304;2023-01-24T06:32:02;26.90;;;8.80;;
69854;SDS011;57146;48.140;16.304;2023-01-24T06:40:12;26.92;;;8.98;;
69854;SDS011;57146;48.140;16.304;2023-01-24T06:43:06;26.27;;;8.55;;
69854;SDS011;57146;48.140;16.304;2023-01-24T06:45:34;25.55;;;8.55;;
69854;SDS011;57146;48.140;16.304;2023-01-24T06:48:01;25.30;;;8.30;;
69854;SDS011;57146;48.140;16.304;2023-01-24T06:50:29;26.75;;;8.88;;
69854;SDS011;57146;48.140;16.304;2023-01-24T06:52:57;27.00;;;8.57;;
69854;SDS011;57146;48.140;16.304;2023-01-24T06:55:24;30.17;;;9.23;;
69854;SDS011;57146;48.140;16.304;2023-01-24T06:57:55;26.05;;;8.68;;
69854;SDS011;57146;48.140;16.304;2023-01-24T07:00:26;26.40;;;8.07;;
69854;SDS011;57146;48.140;16.304;2023-01-24T07:03:00;27.02;;;8.57;;
69854;SDS011;57146;48.140;16.304;2023-01-24T07:05:58;25.45;;;8.43;;
69854;SDS011;57146;48.140;16.304;2023-01-24T07:08:25;28.15;;;9.32;;
69854;SDS011;57146;48.140;16.304;2023-01-24T07:10:57;26.38;;;8.52;;
69854;SDS011;57146;48.140;16.304;2023-01-24T07:13:27;30.77;;;9.47;;
69854;SDS011;57146;48.140;16.304;2023-01-24T07:15:54;25.88;;;8.27;;
69854;SDS011;57146;48.140;16.304;2023-01-24T07:18:21;28.98;;;9.02;;
69854;SDS011;57146;48.140;16.304;2023-01-24T07:20:49;25.60;;;8.77;;
69854;SDS011;57146;48.140;16.304;2023-01-24T07:23:23;27.48;;;8.93;;
69854;SDS011;57146;48.140;16.304;2023-01-24T07:25:52;26.63;;;8.43;;
69854;SDS011;57146;48.140;16.304;2023-01-24T07:28:19;25.25;;;8.23;;
69854;SDS011;57146;48.140;16.304;2023-01-24T07:30:48;27.42;;;8.95;;
69854;SDS011;57146;48.140;16.304;2023-01-24T07:33:15;25.15;;;8.68;;
69854;SDS011;57146;48.140;16.304;2023-01-24T07:35:43;27.55;;;8.65;;
69854;SDS011;57146;48.140;16.304;2023-01-24T07:38:10;27.93;;;8.90;;
69854;SDS011;57146;48.140;16.304;2023-01-24T07:40:38;28.27;;;9.50;;
69854;SDS011;57146;48.140;16.304;2023-01-24T07:43:05;29.73;;;9.02;;
69854;SDS011;57146;48.140;16.304;2023-01-24T07:45:33;29.13;;;8.90;;
69854;SDS011;57146;48.140;16.304;2023-01-24T07:48:00;28.50;;;9.40;;
69854;SDS011;57146;48.140;16.304;2023-01-24T07:50:29;28.07;;;9.00;;
69854;SDS011;57146;48.140;16.304;2023-01-24T07:52:56;26.15;;;8.75;;
69854;SDS011;57146;48.140;16.304;2023-01-24T07:55:23;29.58;;;9.30;;
69854;SDS011;57146;48.140;16.304;2023-01-24T07:57:51;25.58;;;9.30;;
69854;SDS011;57146;48.140;16.304;2023-01-24T08:00:49;28.35;;;9.68;;
69854;SDS011;57146;48.140;16.304;2023-01-24T08:03:17;28.83;;;8.80;;
69854;SDS011;57146;48.140;16.304;2023-01-24T08:05:43;29.50;;;10.02;;
69854;SDS011;57146;48.140;16.304;2023-01-24T08:08:10;30.70;;;9.55;;
69854;SDS011;57146;48.140;16.304;2023-01-24T08:10:40;31.00;;;9.43;;
69854;SDS011;57146;48.140;16.304;2023-01-24T08:13:09;28.27;;;9.60;;
69854;SDS011;57146;48.140;16.304;2023-01-24T08:15:36;28.87;;;9.10;;
69854;SDS011;57146;48.140;16.304;2023-01-24T08:18:03;32.20;;;10.43;;
69854;SDS011;57146;48.140;16.304;2023-01-24T08:20:31;34.60;;;9.75;;
69854;SDS011;57146;48.140;16.304;2023-01-24T08:22:59;28.40;;;9.52;;
69854;SDS011;57146;48.140;16.304;2023-01-24T08:25:27;28.98;;;9.30;;
69854;SDS011;57146;48.140;16.304;2023-01-24T08:27:54;28.60;;;9.57;;
69854;SDS011;57146;48.140;16.304;2023-01-24T08:30:21;27.38;;;9.10;;
69854;SDS011;57146;48.140;16.304;2023-01-24T08:32:57;28.35;;;8.90;;
69854;SDS011;57146;48.140;16.304;2023-01-24T08:35:26;32.22;;;10.05;;
69854;SDS011;57146;48.140;16.304;2023-01-24T08:37:53;31.10;;;9.88;;
69854;SDS011;57146;48.140;16.304;2023-01-24T08:40:20;31.23;;;9.57;;
69854;SDS011;57146;48.140;16.304;2023-01-24T08:42:48;30.65;;;9.35;;
69854;SDS011;57146;48.140;16.304;2023-01-24T08:45:16;32.35;;;9.63;;
69854;SDS011;57146;48.140;16.304;2023-01-24T08:47:44;27.08;;;8.82;;
69854;SDS011;57146;48.140;16.304;2023-01-24T08:50:21;30.10;;;9.95;;
69854;SDS011;57146;48.140;16.304;2023-01-24T08:52:49;30.30;;;9.50;;
69854;SDS011;57146;48.140;16.304;2023-01-24T08:55:21;33.13;;;9.73;;
69854;SDS011;57146;48.140;16.304;2023-01-24T08:57:49;27.80;;;9.18;;
69854;SDS011;57146;48.140;16.304;2023-01-24T09:00:18;28.85;;;9.48;;
69854;SDS011;57146;48.140;16.304;2023-01-24T09:02:45;30.23;;;10.02;;
69854;SDS011;57146;48.140;16.304;2023-01-24T09:05:13;31.77;;;9.67;;
69854;SDS011;57146;48.140;16.304;2023-01-24T09:07:41;31.77;;;9.60;;
69854;SDS011;57146;48.140;16.304;2023-01-24T09:10:08;29.08;;;9.77;;
69854;SDS011;57146;48.140;16.304;2023-01-24T09:12:36;29.73;;;9.93;;
69854;SDS011;57146;48.140;16.304;2023-01-24T09:15:03;28.88;;;9.38;;
69854;SDS011;57146;48.140;16.304;2023-01-24T09:17:30;25.83;;;8.67;;
69854;SDS011;57146;48.140;16.304;2023-01-24T09:19:58;30.95;;;9.48;;
69854;SDS011;57146;48.140;16.304;2023-01-24T09:22:26;36.30;;;10.20;;
69854;SDS011;57146;48.140;16.304;2023-01-24T09:25:20;29.92;;;9.75;;
69854;SDS011;57146;48.140;16.304;2023-01-24T09:27:53;31.10;;;9.70;;
69854;SDS011;57146;48.140;16.304;2023-01-24T09:30:22;29.03;;;8.67;;
69854;SDS011;57146;48.140;16.304;2023-01-24T09:32:49;30.95;;;9.77;;
69854;SDS011;57146;48.140;16.304;2023-01-24T09:35:18;29.67;;;9.77;;
69854;SDS011;57146;48.140;16.304;2023-01-24T09:37:47;31.83;;;9.70;;
69854;SDS011;57146;48.140;16.304;2023-01-24T09:43:11;34.90;;;9.20;;
69854;SDS011;57146;48.140;16.304;2023-01-24T09:45:49;31.20;;;9.52;;
69854;SDS011;57146;48.140;16.304;2023-01-24T09:48:24;31.77;;;9.63;;
69854;SDS011;57146;48.140;16.304;2023-01-24T09:50:56;31.38;;;9.25;;
69854;SDS011;57146;48.140;16.304;2023-01-24T09:53:47;32.03;;;9.70;;
69854;SDS011;57146;48.140;16.304;2023-01-24T09:56:22;31.47;;;10.10;;
69854;SDS011;57146;48.140;16.304;2023-01-24T09:59:21;31.63;;;9.80;;
69854;SDS011;57146;48.140;16.304;2023-01-24T10:02:05;31.92;;;9.70;;
69854;SDS011;57146;48.140;16.304;2023-01-24T10:04:43;32.22;;;10.13;;
69854;SDS011;57146;48.140;16.304;2023-01-24T10:10:13;30.07;;;9.70;;
69854;SDS011;57146;48.140;16.304;2023-01-24T10:23:35;27.83;;;8.63;;
69854;SDS011;57146;48.140;16.304;2023-01-24T10:26:16;30.77;;;10.00;;
69854;SDS011;57146;48.140;16.304;2023-01-24T10:31:52;31.83;;;10.15;;
69854;SDS011;57146;48.140;16.304;2023-01-24T10:34:32;33.60;;;9.75;;
69854;SDS011;57146;48.140;16.304;2023-01-24T10:37:13;32.30;;;9.90;;
69854;SDS011;57146;48.140;16.304;2023-01-24T10:39:47;29.25;;;9.48;;
69854;SDS011;57146;48.140;16.304;2023-01-24T10:42:19;28.52;;;9.20;;
69854;SDS011;57146;48.140;16.304;2023-01-24T10:44:49;25.95;;;9.00;;
69854;SDS011;57146;48.140;16.304;2023-01-24T10:50:17;27.90;;;9.33;;
69854;SDS011;57146;48.140;16.304;2023-01-24T10:52:45;28.80;;;9.93;;
69854;SDS011;57146;48.140;16.304;2023-01-24T10:55:22;31.52;;;10.27;;
69854;SDS011;57146;48.140;16.304;2023-01-24T11:01:37;28.42;;;9.32;;
69854;SDS011;57146;48.140;16.304;2023-01-24T11:03:46;33.50;;;9.57;;
69854;SDS011;57146;48.140;16.304;2023-01-24T11:09:00;29.33;;;9.43;;
69854;SDS011;57146;48.140;16.304;2023-01-24T11:11:37;29.35;;;9.07;;
69854;SDS011;57146;48.140;16.304;2023-01-24T11:14:12;27.95;;;8.82;;
69854;SDS011;57146;48.140;16.304;2023-01-24T11:16:46;27.00;;;8.67;;
69854;SDS011;57146;48.140;16.304;2023-01-24T11:19:25;27.92;;;8.60;;
69854;SDS011;57146;48.140;16.304;2023-01-24T11:21:58;26.30;;;8.68;;
69854;SDS011;57146;48.140;16.304;2023-01-24T11:24:29;26.35;;;8.45;;
69854;SDS011;57146;48.140;16.304;2023-01-24T11:27:22;28.73;;;8.63;;
69854;SDS011;57146;48.140;16.304;2023-01-24T11:30:05;25.13;;;8.73;;
69854;SDS011;57146;48.140;16.304;2023-01-24T11:35:42;26.52;;;8.63;;
69854;SDS011;57146;48.140;16.304;2023-01-24T11:40:44;25.48;;;8.10;;
69854;SDS011;57146;48.140;16.304;2023-01-24T11:54:15;25.90;;;8.90;;
69854;SDS011;57146;48.140;16.304;2023-01-24T12:07:20;25.70;;;8.10;;
69854;SDS011;57146;48.140;16.304;2023-01-24T12:09:59;25.90;;;8.50;;
69854;SDS011;57146;48.140;16.304;2023-01-24T12:20:57;22.90;;;7.78;;
69854;SDS011;57146;48.140;16.304;2023-01-24T12:23:51;22.47;;;7.77;;
69854;SDS011;57146;48.140;16.304;2023-01-24T12:26:29;23.73;;;7.35;;
69854;SDS011;57146;48.140;16.304;2023-01-24T12:29:09;24.35;;;8.00;;
69854;SDS011;57146;48.140;16.304;2023-01-24T12:34:49;26.40;;;8.60;;
69854;SDS011;57146;48.140;16.304;2023-01-24T12:37:44;24.07;;;7.83;;
69854;SDS011;57146;48.140;16.304;2023-01-24T12:57:42;22.90;;;7.65;;
69854;SDS011;57146;48.140;16.304;2023-01-24T13:00:22;24.17;;;8.00;;
69854;SDS011;57146;48.140;16.304;2023-01-24T13:03:01;22.27;;;7.03;;
69854;SDS011;57146;48.140;16.304;2023-01-24T13:05:55;20.57;;;6.73;;
69854;SDS011;57146;48.140;16.304;2023-01-24T13:11:50;21.48;;;7.30;;
69854;SDS011;57146;48.140;16.304;2023-01-24T13:17:15;20.15;;;6.90;;
69854;SDS011;57146;48.140;16.304;2023-01-24T13:29:36;23.42;;;7.60;;
69854;SDS011;57146;48.140;16.304;2023-01-24T13:32:34;21.35;;;6.85;;
69854;SDS011;57146;48.140;16.304;2023-01-24T13:35:19;21.70;;;7.37;;
69854;SDS011;57146;48.140;16.304;2023-01-24T13:41:35;20.70;;;7.13;;
69854;SDS011;57146;48.140;16.304;2023-01-24T13:43:55;20.27;;;7.07;;
69854;SDS011;57146;48.140;16.304;2023-01-24T13:51:56;21.35;;;6.90;;
69854;SDS011;57146;48.140;16.304;2023-01-24T13:54:40;20.63;;;6.55;;
69854;SDS011;57146;48.140;16.304;2023-01-24T14:03:24;19.77;;;7.00;;
69854;SDS011;57146;48.140;16.304;2023-01-24T14:21:33;20.98;;;6.68;;
69854;SDS011;57146;48.140;16.304;2023-01-24T14:24:26;20.33;;;6.68;;
69854;SDS011;57146;48.140;16.304;2023-01-24T14:27:00;20.73;;;6.60;;
69854;SDS011;57146;48.140;16.304;2023-01-24T14:29:41;17.80;;;6.77;;
69854;SDS011;57146;48.140;16.304;2023-01-24T14:32:18;20.63;;;6.50;;
69854;SDS011;57146;48.140;16.304;2023-01-24T14:35:00;20.67;;;7.00;;
69854;SDS011;57146;48.140;16.304;2023-01-24T14:37:30;20.95;;;6.80;;
69854;SDS011;57146;48.140;16.304;2023-01-24T14:40:17;17.55;;;6.10;;
69854;SDS011;57146;48.140;16.304;2023-01-24T14:42:44;17.53;;;6.20;;
69854;SDS011;57146;48.140;16.304;2023-01-24T14:45:17;17.75;;;6.22;;
69854;SDS011;57146;48.140;16.304;2023-01-24T14:47:49;22.00;;;7.25;;
69854;SDS011;57146;48.140;16.304;2023-01-24T14:50:41;19.60;;;6.75;;
69854;SDS011;57146;48.140;16.304;2023-01-24T14:53:22;19.73;;;6.93;;
69854;SDS011;57146;48.140;16.304;2023-01-24T14:55:50;22.87;;;7.90;;
69854;SDS011;57146;48.140;16.304;2023-01-24T14:58:19;20.08;;;6.82;;
69854;SDS011;57146;48.140;16.304;2023-01-24T15:01:23;20.85;;;6.75;;
69854;SDS011;57146;48.140;16.304;2023-01-24T15:04:26;20.63;;;6.85;;
69854;SDS011;57146;48.140;16.304;2023-01-24T15:09:33;21.70;;;6.70;;
69854;SDS011;57146;48.140;16.304;2023-01-24T15:12:13;20.75;;;6.55;;
69854;SDS011;57146;48.140;16.304;2023-01-24T15:14:48;20.25;;;6.65;;
69854;SDS011;57146;48.140;16.304;2023-01-24T15:17:16;18.73;;;6.80;;
69854;SDS011;57146;48.140;16.304;2023-01-24T15:19:46;19.38;;;6.60;;
69854;SDS011;57146;48.140;16.304;2023-01-24T15:22:17;17.83;;;6.27;;
69854;SDS011;57146;48.140;16.304;2023-01-24T15:24:49;19.25;;;6.78;;
69854;SDS011;57146;48.140;16.304;2023-01-24T15:27:20;19.88;;;6.20;;
69854;SDS011;57146;48.140;16.304;2023-01-24T15:40:49;21.05;;;7.30;;
69854;SDS011;57146;48.140;16.304;2023-01-24T15:45:58;21.17;;;7.13;;
69854;SDS011;57146;48.140;16.304;2023-01-24T15:48:25;21.77;;;7.33;;
69854;SDS011;57146;48.140;16.304;2023-01-24T15:50:53;19.83;;;6.40;;
69854;SDS011;57146;48.140;16.304;2023-01-24T15:53:24;19.52;;;7.10;;
69854;SDS011;57146;48.140;16.304;2023-01-24T15:55:53;18.58;;;6.10;;
69854;SDS011;57146;48.140;16.304;2023-01-24T15:58:24;18.50;;;6.32;;
69854;SDS011;57146;48.140;16.304;2023-01-24T16:01:15;17.70;;;5.80;;
69854;SDS011;57146;48.140;16.304;2023-01-24T16:03:43;20.80;;;6.93;;
69854;SDS011;57146;48.140;16.304;2023-01-24T16:06:10;23.27;;;7.32;;
69854;SDS011;57146;48.140;16.304;2023-01-24T16:08:37;18.65;;;6.53;;
69854;SDS011;57146;48.140;16.304;2023-01-24T16:11:04;20.33;;;6.82;;
69854;SDS011;57146;48.140;16.304;2023-01-24T16:16:08;19.33;;;6.82;;
69854;SDS011;57146;48.140;16.304;2023-01-24T16:18:39;21.38;;;6.68;;
69854;SDS011;57146;48.140;16.304;2023-01-24T16:21:08;19.17;;;6.53;;
69854;SDS011;57146;48.140;16.304;2023-01-24T16:23:36;20.73;;;6.43;;
69854;SDS011;57146;48.140;16.304;2023-01-24T16:26:03;21.50;;;6.67;;
69854;SDS011;57146;48.140;16.304;2023-01-24T16:28:30;20.85;;;6.55;;
69854;SDS011;57146;48.140;16.304;2023-01-24T16:31:01;19.08;;;6.85;;
69854;SDS011;57146;48.140;16.304;2023-01-24T16:33:29;20.10;;;6.57;;
69854;SDS011;57146;48.140;16.304;2023-01-24T16:35:56;18.10;;;6.55;;
69854;SDS011;57146;48.140;16.304;2023-01-24T16:38:25;20.53;;;6.80;;
69854;SDS011;57146;48.140;16.304;2023-01-24T16:40:51;17.30;;;6.47;;
69854;SDS011;57146;48.140;16.304;2023-01-24T16:43:22;19.15;;;6.78;;
69854;SDS011;57146;48.140;16.304;2023-01-24T16:45:50;21.90;;;7.05;;
69854;SDS011;57146;48.140;16.304;2023-01-24T16:48:17;20.13;;;7.13;;
69854;SDS011;57146;48.140;16.304;2023-01-24T16:51:10;17.67;;;6.33;;
69854;SDS011;57146;48.140;16.304;2023-01-24T16:53:39;17.05;;;6.53;;
69854;SDS011;57146;48.140;16.304;2023-01-24T16:56:07;16.85;;;6.10;;
69854;SDS011;57146;48.140;16.304;2023-01-24T16:58:35;17.52;;;6.35;;
69854;SDS011;57146;48.140;16.304;2023-01-24T17:01:05;20.35;;;7.15;;
69854;SDS011;57146;48.140;16.304;2023-01-24T17:03:37;20.23;;;6.70;;
69854;SDS011;57146;48.140;16.304;2023-01-24T17:06:05;19.33;;;6.68;;
69854;SDS011;57146;48.140;16.304;2023-01-24T17:08:38;22.40;;;6.82;;
69854;SDS011;57146;48.140;16.304;2023-01-24T17:11:07;19.13;;;6.30;;
69854;SDS011;57146;48.140;16.304;2023-01-24T17:13:36;17.13;;;6.72;;
69854;SDS011;57146;48.140;16.304;2023-01-24T17:18:33;18.30;;;6.82;;
69854;SDS011;57146;48.140;16.304;2023-01-24T17:21:02;20.48;;;6.78;;
69854;SDS011;57146;48.140;16.304;2023-01-24T17:23:31;19.08;;;6.43;;
69854;SDS011;57146;48.140;16.304;2023-01-24T17:26:05;18.95;;;6.72;;
69854;SDS011;57146;48.140;16.304;2023-01-24T17:28:35;18.93;;;6.57;;
69854;SDS011;57146;48.140;16.304;2023-01-24T17:31:09;18.23;;;6.35;;
69854;SDS011;57146;48.140;16.304;2023-01-24T17:33:38;20.60;;;6.90;;
69854;SDS011;57146;48.140;16.304;2023-01-24T17:36:08;19.92;;;7.10;;
69854;SDS011;57146;48.140;16.304;2023-01-24T17:38:37;19.70;;;6.78;;
69854;SDS011;57146;48.140;16.304;2023-01-24T17:41:08;20.10;;;6.73;;
69854;SDS011;57146;48.140;16.304;2023-01-24T17:43:42;20.27;;;7.00;;
69854;SDS011;57146;48.140;16.304;2023-01-24T17:46:37;19.13;;;6.57;;